Time;durP1;ratioP1;P1;durP2;ratioP2;P2;SDS_P1;SDS_P2;PMS_P1;PMS_P2;Temp;Humidity;BMP_temperature;BMP_pressure;BME280_temperature;BME280_humidity;BME280_pressure;Samples;Min_cycle;Max_cycle;Signal;HPM_P1;HPM_P2
2023/09/30 00:02:49;;;;;;;9.70;6.20;;;25.10;58.00;;;;;;7677803;22;80818;-60
2023/09/30 00:05:50;;;;;;;11.57;6.60;;;25.10;58.00;;;;;;7675501;22;80504;-60
2023/09/30 00:08:50;;;;;;;9.65;6.82;;;25.10;58.10;;;;;;7674447;22;80925;-60
2023/09/30 00:11:51;;;;;;;12.07;7.43;;;25.10;58.00;;;;;;7674794;22;80418;-59
2023/09/30 00:14:51;;;;;;;11.30;7.00;;;25.10;58.10;;;;;;7675264;22;80367;-58
2023/09/30 00:17:52;;;;;;;9.52;7.00;;;25.10;58.10;;;;;;7675451;22;80262;-58
2023/09/30 00:20:52;;;;;;;11.52;7.82;;;25.10;58.20;;;;;;7674685;22;81568;-58
2023/09/30 00:23:53;;;;;;;12.63;7.68;;;25.10;58.40;;;;;;7677628;22;80538;-57
2023/09/30 00:26:53;;;;;;;12.95;7.80;;;25.10;58.40;;;;;;7679457;22;80599;-56
2023/09/30 00:29:54;;;;;;;11.68;7.32;;;25.10;58.40;;;;;;7677528;22;80667;-55
2023/09/30 00:32:54;;;;;;;9.63;6.90;;;25.10;58.40;;;;;;7676684;22;81275;-60
2023/09/30 00:35:55;;;;;;;13.10;7.80;;;25.00;58.40;;;;;;7650929;22;83549;-60
2023/09/30 00:38:55;;;;;;;8.45;6.95;;;25.10;58.70;;;;;;7625229;22;81910;-59
2023/09/30 00:41:56;;;;;;;9.02;7.40;;;25.00;58.70;;;;;;7650473;22;81321;-59
2023/09/30 00:44:57;;;;;;;15.13;6.70;;;25.00;58.70;;;;;;7677569;22;80420;-59
2023/09/30 00:47:57;;;;;;;13.70;7.35;;;25.00;58.80;;;;;;7679226;22;80505;-57
2023/09/30 00:50:58;;;;;;;12.38;8.05;;;25.00;58.80;;;;;;7677899;22;80524;-53
2023/09/30 00:53:58;;;;;;;11.98;7.50;;;25.00;58.80;;;;;;7678311;22;81129;-56
2023/09/30 00:57:00;;;;;;;10.20;6.88;;;25.00;58.70;;;;;;7677927;22;81336;-56
2023/09/30 01:00:01;;;;;;;10.63;6.72;;;25.00;58.70;;;;;;7677752;22;80479;-55
2023/09/30 01:03:03;;;;;;;11.18;7.40;;;25.00;58.70;;;;;;7650876;22;83047;-56
2023/09/30 01:06:04;;;;;;;12.25;6.78;;;25.00;58.60;;;;;;7677456;22;80448;-54
2023/09/30 01:09:04;;;;;;;12.57;6.85;;;24.90;58.60;;;;;;7649860;22;82146;-50
2023/09/30 01:12:05;;;;;;;9.98;6.65;;;24.90;58.60;;;;;;7677651;22;80575;-45
2023/09/30 01:15:06;;;;;;;12.27;6.20;;;24.90;58.30;;;;;;7676905;22;81417;-45
2023/09/30 01:18:06;;;;;;;11.88;5.90;;;24.90;58.30;;;;;;7650601;22;81470;-48
2023/09/30 01:21:07;;;;;;;14.00;7.07;;;24.90;58.20;;;;;;7673972;22;81150;-48
2023/09/30 01:24:08;;;;;;;10.57;6.18;;;24.90;58.10;;;;;;7676401;22;80302;-45
2023/09/30 01:27:08;;;;;;;12.25;6.00;;;24.90;58.00;;;;;;7677388;22;81053;-60
2023/09/30 01:30:10;;;;;;;9.27;5.90;;;24.90;58.00;;;;;;7677127;22;80209;-56
2023/09/30 01:33:11;;;;;;;10.88;6.57;;;24.90;58.10;;;;;;7677653;22;80065;-56
2023/09/30 01:36:11;;;;;;;11.60;7.07;;;24.90;58.10;;;;;;7679376;22;80445;-56
2023/09/30 01:39:12;;;;;;;11.57;5.97;;;24.90;58.00;;;;;;7651710;22;80696;-56
2023/09/30 01:42:13;;;;;;;7.70;5.43;;;24.90;57.90;;;;;;7653208;22;83157;-57
2023/09/30 01:45:13;;;;;;;11.10;5.93;;;24.90;58.30;;;;;;7678251;22;81115;-49
2023/09/30 01:48:14;;;;;;;9.70;5.68;;;24.90;58.40;;;;;;7652020;22;81535;-49
2023/09/30 01:51:14;;;;;;;8.07;5.50;;;24.90;58.10;;;;;;7679018;22;81282;-47
2023/09/30 01:54:15;;;;;;;9.50;6.20;;;24.90;58.30;;;;;;7679041;22;80274;-46
2023/09/30 01:57:15;;;;;;;35.25;6.65;;;24.90;58.30;;;;;;7678594;22;80613;-44
2023/09/30 02:00:17;;;;;;;13.00;5.85;;;24.90;58.50;;;;;;7679401;22;80906;-47
2023/09/30 02:03:17;;;;;;;11.48;6.28;;;24.90;58.50;;;;;;7652118;22;83182;-46
2023/09/30 02:06:18;;;;;;;11.00;5.22;;;24.90;58.50;;;;;;7679257;22;81268;-46
2023/09/30 02:09:18;;;;;;;9.48;5.90;;;24.90;58.40;;;;;;7678520;22;80630;-46
2023/09/30 02:12:19;;;;;;;17.13;5.47;;;24.90;58.50;;;;;;7651589;22;82174;-45
2023/09/30 02:15:20;;;;;;;6.25;5.05;;;24.90;58.60;;;;;;7678243;22;80510;-47
2023/09/30 02:18:21;;;;;;;12.45;5.40;;;24.90;58.20;;;;;;7652210;22;83095;-49
2023/09/30 02:21:24;;;;;;;5.47;4.50;;;24.90;58.30;;;;;;7666780;22;82947;-48
2023/09/30 02:24:25;;;;;;;6.85;4.65;;;24.90;58.40;;;;;;7678191;22;80880;-49
2023/09/30 02:27:25;;;;;;;6.70;4.93;;;24.90;58.30;;;;;;7678772;22;80402;-47
2023/09/30 02:30:27;;;;;;;6.60;4.60;;;24.90;58.20;;;;;;7678955;22;81239;-49
2023/09/30 02:33:28;;;;;;;7.22;5.22;;;24.90;58.30;;;;;;7676899;22;83424;-47
2023/09/30 02:36:28;;;;;;;5.28;4.47;;;24.90;58.40;;;;;;7676831;22;83392;-46
2023/09/30 02:39:29;;;;;;;8.88;5.78;;;24.90;58.30;;;;;;7677251;22;80391;-55
2023/09/30 02:42:29;;;;;;;7.45;5.15;;;24.90;58.40;;;;;;7679035;22;80291;-45
2023/09/30 02:45:30;;;;;;;8.10;5.18;;;24.90;58.40;;;;;;7677500;22;80703;-47
2023/09/30 02:48:30;;;;;;;7.05;5.20;;;24.90;58.30;;;;;;7677915;22;80430;-45
2023/09/30 02:51:31;;;;;;;8.98;5.25;;;24.90;58.30;;;;;;7677986;22;84511;-43
2023/09/30 02:54:32;;;;;;;6.93;5.35;;;24.90;58.30;;;;;;7678028;22;80429;-46
2023/09/30 02:57:32;;;;;;;10.07;5.57;;;24.90;58.20;;;;;;7679116;22;80416;-45
2023/09/30 03:00:33;;;;;;;8.93;5.43;;;24.80;58.10;;;;;;7680103;22;80993;-59
2023/09/30 03:03:35;;;;;;;7.75;5.65;;;24.80;58.10;;;;;;7676881;22;83507;-60
2023/09/30 03:06:37;;;;;;;13.80;5.78;;;24.80;58.20;;;;;;7678835;22;80610;-60
2023/09/30 03:09:37;;;;;;;6.70;5.43;;;24.80;58.20;;;;;;7679028;22;80339;-59
2023/09/30 03:12:38;;;;;;;10.15;6.43;;;24.80;58.20;;;;;;7678538;22;80284;-58
2023/09/30 03:15:39;;;;;;;6.93;5.65;;;24.80;58.20;;;;;;7678543;22;80827;-54
2023/09/30 03:18:39;;;;;;;10.88;5.78;;;24.80;58.10;;;;;;7678825;22;80393;-55
2023/09/30 03:21:40;;;;;;;8.70;5.70;;;24.80;58.20;;;;;;7678770;22;81033;-51
2023/09/30 03:24:41;;;;;;;9.13;6.10;;;24.80;58.40;;;;;;7679676;22;80345;-51
2023/09/30 03:27:41;;;;;;;8.55;5.65;;;24.80;58.50;;;;;;7678795;22;80873;-54
2023/09/30 03:30:42;;;;;;;8.85;5.90;;;24.80;58.60;;;;;;7678916;22;81398;-54
2023/09/30 03:33:42;;;;;;;9.93;6.00;;;24.80;58.30;;;;;;7673812;22;80988;-44
2023/09/30 03:36:44;;;;;;;9.20;6.03;;;24.80;57.90;;;;;;7678469;22;80556;-52
2023/09/30 03:39:47;;;;;;;8.57;5.68;;;24.80;58.50;;;;;;7677968;22;80747;-53
2023/09/30 03:42:50;;;;;;;7.45;5.35;;;24.80;58.30;;;;;;7678987;22;80403;-54
2023/09/30 03:45:52;;;;;;;8.23;5.68;;;24.80;58.20;;;;;;7678329;22;80493;-54
2023/09/30 03:48:53;;;;;;;12.38;5.30;;;24.70;58.00;;;;;;7678828;22;80605;-54
2023/09/30 03:51:53;;;;;;;7.47;5.38;;;24.80;57.90;;;;;;7650327;22;81595;-54
2023/09/30 03:54:54;;;;;;;11.70;5.22;;;24.70;58.20;;;;;;7678613;22;80828;-53
2023/09/30 03:57:55;;;;;;;9.43;5.30;;;24.80;58.10;;;;;;7678081;22;80397;-47
2023/09/30 04:00:56;;;;;;;8.27;5.10;;;24.80;58.50;;;;;;7676411;22;80262;-51
2023/09/30 04:03:56;;;;;;;6.22;5.03;;;24.70;58.00;;;;;;7678769;22;80198;-47
2023/09/30 04:06:57;;;;;;;9.00;5.60;;;24.70;58.30;;;;;;7673672;22;80506;-47
2023/09/30 04:10:00;;;;;;;8.43;4.93;;;24.80;58.50;;;;;;7670109;22;80567;-48
2023/09/30 04:13:01;;;;;;;9.70;5.68;;;24.80;58.30;;;;;;7672259;22;80847;-55
2023/09/30 04:16:02;;;;;;;7.43;5.70;;;24.80;58.60;;;;;;7675187;22;80472;-56
2023/09/30 04:19:03;;;;;;;10.27;5.72;;;24.80;58.60;;;;;;7651239;22;82800;-56
2023/09/30 04:22:04;;;;;;;17.25;5.25;;;24.80;58.50;;;;;;7677608;22;80415;-56
2023/09/30 04:25:08;;;;;;;8.65;5.45;;;24.80;58.60;;;;;;7676578;22;80319;-56
2023/09/30 04:28:08;;;;;;;8.52;5.30;;;24.70;58.60;;;;;;7676042;22;80222;-55
2023/09/30 04:31:09;;;;;;;9.60;5.15;;;24.70;58.60;;;;;;7677677;22;80795;-48
2023/09/30 04:34:10;;;;;;;7.93;5.43;;;24.70;58.90;;;;;;7676949;22;81177;-56
2023/09/30 04:37:11;;;;;;;6.93;4.85;;;24.70;58.50;;;;;;7678575;22;80791;-55
2023/09/30 04:40:21;;;;;;;8.75;5.70;;;24.70;58.70;;;;;;7676910;22;80575;-56
2023/09/30 04:43:22;;;;;;;6.82;5.00;;;24.70;58.50;;;;;;7676995;22;80478;-57
2023/09/30 04:46:23;;;;;;;8.32;5.50;;;24.70;58.60;;;;;;7677801;22;80143;-56
2023/09/30 04:49:24;;;;;;;8.90;5.07;;;24.70;59.10;;;;;;7677554;22;80624;-52
2023/09/30 04:52:27;;;;;;;10.60;5.18;;;24.80;59.20;;;;;;7676798;22;80152;-45
2023/09/30 04:55:28;;;;;;;13.15;5.32;;;24.80;59.20;;;;;;7648713;22;83227;-46
2023/09/30 04:58:29;;;;;;;12.63;5.97;;;24.80;59.60;;;;;;7677843;22;80244;-50
2023/09/30 05:01:30;;;;;;;7.22;5.25;;;24.80;59.40;;;;;;7677140;22;80569;-45
2023/09/30 05:04:30;;;;;;;7.00;4.80;;;24.80;60.60;;;;;;7677167;22;81434;-48
2023/09/30 05:07:31;;;;;;;8.73;5.05;;;24.80;60.00;;;;;;7677486;22;81841;-54
2023/09/30 05:10:31;;;;;;;6.47;4.90;;;24.80;60.10;;;;;;7679551;22;81248;-44
2023/09/30 05:13:33;;;;;;;8.00;5.53;;;24.80;59.90;;;;;;7651308;22;80317;-46
2023/09/30 05:16:34;;;;;;;7.05;5.32;;;24.80;59.90;;;;;;7677828;22;80766;-46
2023/09/30 05:19:36;;;;;;;9.52;5.55;;;24.80;60.00;;;;;;7677681;22;80458;-45
2023/09/30 05:22:38;;;;;;;9.93;5.15;;;24.80;60.30;;;;;;7669068;22;80466;-47
2023/09/30 05:25:39;;;;;;;13.15;5.85;;;24.80;60.20;;;;;;7659498;22;81516;-56
2023/09/30 05:28:40;;;;;;;12.88;6.60;;;24.80;60.10;;;;;;7667662;22;81369;-54
2023/09/30 05:31:40;;;;;;;17.05;6.22;;;24.80;60.50;;;;;;7669463;22;80789;-54
2023/09/30 05:34:41;;;;;;;23.33;7.28;;;24.90;61.00;;;;;;7677392;22;81238;-49
2023/09/30 05:37:41;;;;;;;14.65;6.40;;;24.80;61.10;;;;;;7677667;22;81959;-49
2023/09/30 05:40:42;;;;;;;15.57;8.02;;;24.90;61.70;;;;;;7677258;22;80114;-55
2023/09/30 05:43:43;;;;;;;11.75;6.93;;;24.90;61.80;;;;;;7680388;22;80336;-46
2023/09/30 05:46:45;;;;;;;11.50;7.40;;;24.90;62.10;;;;;;7678224;22;80422;-59
2023/09/30 05:49:45;;;;;;;16.80;8.20;;;25.00;61.70;;;;;;7677801;22;80757;-59
2023/09/30 05:52:46;;;;;;;16.08;8.75;;;25.00;62.20;;;;;;7664367;22;80943;-59
2023/09/30 05:55:46;;;;;;;16.48;8.80;;;25.00;62.20;;;;;;7658535;22;81315;-58
2023/09/30 05:58:47;;;;;;;13.63;8.93;;;25.00;62.20;;;;;;7659521;22;80525;-60
2023/09/30 06:01:47;;;;;;;18.45;8.63;;;25.10;62.30;;;;;;7661010;22;80765;-56
2023/09/30 06:04:50;;;;;;;17.30;8.50;;;25.10;61.90;;;;;;7661937;22;81572;-53
2023/09/30 06:07:51;;;;;;;16.13;8.52;;;25.10;61.90;;;;;;7659842;22;81308;-55
2023/09/30 06:10:52;;;;;;;14.65;7.82;;;25.00;61.80;;;;;;7661017;22;80503;-53
2023/09/30 06:13:53;;;;;;;14.77;7.65;;;25.00;61.50;;;;;;7658791;22;81428;-54
2023/09/30 06:16:55;;;;;;;12.10;8.38;;;25.00;61.30;;;;;;7655569;22;80564;-53
2023/09/30 06:19:56;;;;;;;15.70;7.85;;;25.00;61.50;;;;;;7631559;22;84250;-46
2023/09/30 06:22:56;;;;;;;16.55;7.80;;;25.00;61.60;;;;;;7659762;22;80587;-48
2023/09/30 06:25:57;;;;;;;14.60;7.53;;;25.00;61.60;;;;;;7656284;22;80700;-50
2023/09/30 06:28:58;;;;;;;14.80;7.03;;;25.00;61.60;;;;;;7656576;22;81208;-53
2023/09/30 06:31:58;;;;;;;16.02;7.80;;;25.00;61.40;;;;;;7659309;22;80942;-49
2023/09/30 06:34:59;;;;;;;11.70;7.10;;;25.00;61.80;;;;;;7659424;22;80937;-50
2023/09/30 06:38:01;;;;;;;13.98;6.55;;;25.00;61.50;;;;;;7654587;22;81551;-48
2023/09/30 06:41:01;;;;;;;14.10;8.10;;;25.00;61.70;;;;;;7655003;22;86206;-50
2023/09/30 06:44:02;;;;;;;10.75;6.72;;;25.00;61.30;;;;;;7656174;22;81489;-47
2023/09/30 06:47:02;;;;;;;10.85;6.47;;;25.00;61.80;;;;;;7654827;22;80772;-47
2023/09/30 06:50:07;;;;;;;12.68;6.43;;;25.00;61.70;;;;;;7659382;22;80615;-47
2023/09/30 06:53:09;;;;;;;14.80;6.55;;;25.10;61.70;;;;;;7658054;22;81241;-48
2023/09/30 06:56:10;;;;;;;9.82;6.18;;;25.10;61.50;;;;;;7655578;22;80874;-59
2023/09/30 06:59:10;;;;;;;13.18;6.57;;;25.10;61.80;;;;;;7659511;22;80875;-60
2023/09/30 07:02:11;;;;;;;12.02;6.53;;;25.10;61.60;;;;;;7658912;22;80744;-61
2023/09/30 07:05:12;;;;;;;10.25;6.45;;;25.10;61.50;;;;;;7634420;22;81074;-60
2023/09/30 07:08:12;;;;;;;12.85;7.00;;;25.10;61.50;;;;;;7657566;22;80787;-60
2023/09/30 07:11:13;;;;;;;18.33;7.00;;;25.10;61.60;;;;;;7660317;22;80982;-61
2023/09/30 07:14:14;;;;;;;11.73;6.50;;;25.10;61.70;;;;;;7659833;22;81135;-62
2023/09/30 07:17:14;;;;;;;19.15;6.85;;;25.10;61.60;;;;;;7656422;22;80858;-59
2023/09/30 07:20:15;;;;;;;11.07;6.43;;;25.10;61.80;;;;;;7672546;22;80458;-61
2023/09/30 07:23:15;;;;;;;17.05;6.60;;;25.10;61.60;;;;;;7679017;22;80829;-60
2023/09/30 07:26:16;;;;;;;10.38;5.93;;;25.10;62.30;;;;;;7679374;22;87778;-60
2023/09/30 07:29:16;;;;;;;10.35;6.22;;;25.10;62.00;;;;;;7673844;22;80405;-60
2023/09/30 07:32:17;;;;;;;11.13;7.47;;;25.20;62.30;;;;;;7677349;22;80669;-59
2023/09/30 07:35:17;;;;;;;10.48;6.75;;;25.20;62.30;;;;;;7676521;22;80494;-60
2023/09/30 07:38:18;;;;;;;8.43;5.90;;;25.20;62.20;;;;;;7676006;22;80432;-61
2023/09/30 07:41:18;;;;;;;12.00;6.22;;;25.20;62.70;;;;;;7674209;22;81457;-61
2023/09/30 07:44:19;;;;;;;10.68;6.25;;;25.20;62.70;;;;;;7676593;22;80226;-61
2023/09/30 07:47:19;;;;;;;8.10;6.45;;;25.20;62.60;;;;;;7675793;22;80240;-59
2023/09/30 07:50:20;;;;;;;11.13;6.43;;;25.20;62.80;;;;;;7676489;22;80356;-60
2023/09/30 07:53:20;;;;;;;10.48;6.47;;;25.20;62.60;;;;;;7647401;22;80733;-48
2023/09/30 07:56:21;;;;;;;9.20;6.00;;;25.20;62.60;;;;;;7653570;22;82020;-60
2023/09/30 07:59:22;;;;;;;14.93;6.47;;;25.20;62.20;;;;;;7677481;22;80393;-59
2023/09/30 08:02:24;;;;;;;8.50;6.28;;;25.20;62.60;;;;;;7676237;22;80256;-62
2023/09/30 08:05:24;;;;;;;12.25;6.53;;;25.20;62.40;;;;;;7676959;22;81316;-61
2023/09/30 08:08:25;;;;;;;8.55;6.00;;;25.20;62.40;;;;;;7677621;22;80463;-64
2023/09/30 08:11:30;;;;;;;12.38;6.38;;;25.20;62.70;;;;;;7676722;22;80626;-62
2023/09/30 08:14:31;;;;;;;9.60;6.40;;;25.20;62.40;;;;;;7678714;22;81807;-62
2023/09/30 08:17:32;;;;;;;15.07;7.50;;;25.20;62.60;;;;;;7679054;22;80826;-62
2023/09/30 08:20:32;;;;;;;20.88;8.13;;;25.20;61.70;;;;;;7672474;22;82378;-60
2023/09/30 08:23:33;;;;;;;13.07;7.38;;;25.00;60.70;;;;;;7639753;22;80639;-69
2023/09/30 08:26:35;;;;;;;14.30;7.93;;;24.90;60.90;;;;;;7678486;22;81113;-70
2023/09/30 08:29:36;;;;;;;15.07;8.10;;;24.80;60.80;;;;;;7676822;22;80839;-64
2023/09/30 08:32:36;;;;;;;14.77;7.78;;;24.70;60.90;;;;;;7677563;22;80472;-71
2023/09/30 08:35:38;;;;;;;15.73;8.00;;;24.70;60.90;;;;;;7673196;22;80844;-63
2023/09/30 08:38:38;;;;;;;14.45;7.68;;;24.70;60.80;;;;;;7658156;22;81114;-67
2023/09/30 08:41:39;;;;;;;15.05;7.85;;;24.70;61.20;;;;;;7672762;22;80981;-65
2023/09/30 08:44:39;;;;;;;20.70;8.73;;;24.70;61.00;;;;;;7677913;22;80975;-66
2023/09/30 08:47:40;;;;;;;14.05;8.27;;;24.60;61.00;;;;;;7678286;22;80417;-68
2023/09/30 08:50:42;;;;;;;16.58;8.38;;;24.60;60.90;;;;;;7678069;22;80047;-72
2023/09/30 08:53:42;;;;;;;15.13;8.45;;;24.60;61.00;;;;;;7678385;22;80462;-67
2023/09/30 08:56:43;;;;;;;16.50;8.25;;;24.60;61.30;;;;;;7677142;22;80424;-69
2023/09/30 08:59:43;;;;;;;15.20;8.15;;;24.50;61.10;;;;;;7661104;22;81546;-69
2023/09/30 09:02:44;;;;;;;21.73;9.15;;;24.40;61.50;;;;;;7676784;22;80640;-67
2023/09/30 09:05:44;;;;;;;14.95;8.60;;;24.40;61.60;;;;;;7676881;22;80218;-56
2023/09/30 09:08:45;;;;;;;16.83;9.50;;;24.40;61.90;;;;;;7677581;22;80771;-67
2023/09/30 09:11:46;;;;;;;15.32;8.13;;;24.40;61.70;;;;;;7667639;22;80694;-64
2023/09/30 09:14:47;;;;;;;15.88;9.00;;;24.40;61.70;;;;;;7677456;22;80297;-66
2023/09/30 09:17:50;;;;;;;14.85;8.57;;;24.40;61.70;;;;;;7649848;22;82211;-64
2023/09/30 09:20:50;;;;;;;14.35;8.70;;;24.40;61.60;;;;;;7677421;22;81155;-65
2023/09/30 09:23:51;;;;;;;12.23;7.65;;;24.40;62.00;;;;;;7677622;22;80915;-56
2023/09/30 09:26:52;;;;;;;18.58;9.15;;;24.40;62.10;;;;;;7676848;22;79892;-57
2023/09/30 09:29:53;;;;;;;14.75;8.80;;;24.30;61.50;;;;;;7677691;22;81103;-59
2023/09/30 09:32:54;;;;;;;13.88;9.00;;;24.30;62.30;;;;;;7640268;22;81713;-59
2023/09/30 09:35:54;;;;;;;12.02;7.57;;;24.30;62.30;;;;;;7669863;22;80472;-58
2023/09/30 09:38:55;;;;;;;13.25;8.27;;;24.30;62.20;;;;;;7675990;22;81480;-61
2023/09/30 09:41:57;;;;;;;9.85;8.27;;;24.30;62.20;;;;;;7675003;22;80519;-60
2023/09/30 09:44:58;;;;;;;12.57;8.65;;;24.30;62.30;;;;;;7662827;22;80139;-49
2023/09/30 09:47:58;;;;;;;18.30;8.77;;;24.40;62.20;;;;;;7663775;22;81506;-51
2023/09/30 09:50:59;;;;;;;14.35;8.73;;;24.40;62.40;;;;;;7677792;22;80427;-53
2023/09/30 09:53:59;;;;;;;14.07;7.88;;;24.40;62.70;;;;;;7677422;22;80343;-49
2023/09/30 09:57:00;;;;;;;14.23;8.50;;;24.30;62.90;;;;;;7680067;22;80468;-51
2023/09/30 10:00:05;;;;;;;19.00;8.57;;;24.30;62.90;;;;;;7678598;22;79990;-52
2023/09/30 10:03:06;;;;;;;26.05;8.75;;;24.30;62.80;;;;;;7679213;22;80560;-48
2023/09/30 10:06:06;;;;;;;14.75;8.05;;;24.30;63.30;;;;;;7652294;22;83207;-48
2023/09/30 10:09:07;;;;;;;19.48;9.35;;;24.20;63.70;;;;;;7680390;22;80506;-50
2023/09/30 10:12:08;;;;;;;19.38;8.55;;;24.20;63.70;;;;;;7678383;22;80727;-54
2023/09/30 10:15:09;;;;;;;17.45;8.65;;;24.20;63.50;;;;;;7653466;22;80309;-47
2023/09/30 10:18:10;;;;;;;20.63;8.63;;;24.20;63.70;;;;;;7676280;22;81280;-51
2023/09/30 10:21:10;;;;;;;13.70;8.20;;;24.10;63.80;;;;;;7664369;22;80716;-48
2023/09/30 10:24:11;;;;;;;14.85;8.30;;;24.20;64.10;;;;;;7676327;22;81503;-51
2023/09/30 10:27:11;;;;;;;14.65;7.82;;;24.20;64.20;;;;;;7679590;22;80262;-46
2023/09/30 10:30:15;;;;;;;14.73;8.07;;;24.20;64.50;;;;;;7678485;22;80597;-45
2023/09/30 10:33:16;;;;;;;20.58;8.70;;;24.20;64.80;;;;;;7674740;22;81017;-54
2023/09/30 10:36:16;;;;;;;15.10;9.82;;;24.20;65.90;;;;;;7679029;22;80565;-52
2023/09/30 10:39:18;;;;;;;19.60;9.43;;;24.10;66.40;;;;;;7660073;22;81775;-52
2023/09/30 10:42:18;;;;;;;19.27;8.65;;;24.10;66.60;;;;;;7668255;22;81137;-50
2023/09/30 10:45:20;;;;;;;16.08;9.18;;;24.20;66.70;;;;;;7674156;22;80997;-46
2023/09/30 10:48:20;;;;;;;23.38;9.02;;;24.20;66.60;;;;;;7677799;22;81140;-52
2023/09/30 10:51:21;;;;;;;13.85;8.82;;;24.20;66.60;;;;;;7677215;22;80373;-52
2023/09/30 10:54:21;;;;;;;18.83;9.75;;;24.20;67.20;;;;;;7674738;22;80330;-52
2023/09/30 10:57:22;;;;;;;15.25;9.07;;;24.20;66.50;;;;;;7675986;22;80514;-64
2023/09/30 11:00:23;;;;;;;18.92;9.07;;;24.20;66.60;;;;;;7677187;22;81901;-65
2023/09/30 11:03:25;;;;;;;16.13;10.02;;;24.20;66.60;;;;;;7674491;22;80235;-65
2023/09/30 11:06:25;;;;;;;23.50;9.68;;;24.20;67.40;;;;;;7673040;22;83090;-62
2023/09/30 11:09:26;;;;;;;20.15;8.95;;;24.20;67.60;;;;;;7674163;22;83039;-65
2023/09/30 11:12:26;;;;;;;14.50;9.13;;;24.20;67.80;;;;;;7677085;22;80536;-62
2023/09/30 11:15:27;;;;;;;12.07;8.15;;;24.20;68.20;;;;;;7675406;22;80503;-67
2023/09/30 11:18:28;;;;;;;14.82;8.45;;;24.30;68.20;;;;;;7673188;22;81289;-66
2023/09/30 11:21:28;;;;;;;14.07;8.60;;;24.30;68.30;;;;;;7652066;22;80919;-67
2023/09/30 11:24:29;;;;;;;10.93;7.00;;;24.30;69.10;;;;;;7666973;22;80445;-66
2023/09/30 11:27:31;;;;;;;12.30;6.47;;;24.30;69.00;;;;;;7671472;22;80909;-67
2023/09/30 11:30:31;;;;;;;10.98;6.07;;;24.30;69.30;;;;;;7651586;22;81632;-72
2023/09/30 11:33:33;;;;;;;14.98;5.72;;;24.30;69.70;;;;;;7674192;22;80830;-64
2023/09/30 11:36:34;;;;;;;19.63;5.43;;;24.30;69.90;;;;;;7673943;22;80594;-62
2023/09/30 11:39:35;;;;;;;7.15;5.38;;;24.30;69.80;;;;;;7652394;22;80759;-64
2023/09/30 11:42:35;;;;;;;8.20;4.45;;;24.30;70.50;;;;;;7656466;22;80726;-65
2023/09/30 11:45:37;;;;;;;8.48;4.47;;;24.30;70.70;;;;;;7657474;22;80540;-65
2023/09/30 11:48:37;;;;;;;6.82;3.90;;;24.30;70.60;;;;;;7657166;22;81551;-65
2023/09/30 11:51:38;;;;;;;5.57;4.03;;;24.30;70.70;;;;;;7657890;22;80782;-65
2023/09/30 11:54:40;;;;;;;8.57;3.60;;;24.20;70.90;;;;;;7660322;22;81729;-45
2023/09/30 11:57:42;;;;;;;3.88;2.95;;;24.20;71.00;;;;;;7658460;22;80783;-46
2023/09/30 12:00:43;;;;;;;5.22;3.60;;;24.20;71.10;;;;;;7655791;22;82054;-50
2023/09/30 12:03:43;;;;;;;6.13;3.10;;;24.10;71.20;;;;;;7657229;22;81489;-49
2023/09/30 12:06:44;;;;;;;8.35;3.42;;;24.10;71.20;;;;;;7657984;22;80609;-45
2023/09/30 12:09:44;;;;;;;7.25;3.38;;;24.10;71.50;;;;;;7659127;22;80356;-53
2023/09/30 12:12:45;;;;;;;6.05;3.08;;;24.10;71.70;;;;;;7657925;22;81226;-50
2023/09/30 12:15:45;;;;;;;5.50;2.75;;;24.10;72.20;;;;;;7651213;22;80984;-51
2023/09/30 12:18:46;;;;;;;5.10;2.30;;;24.00;72.50;;;;;;7654918;22;81119;-51
2023/09/30 12:21:47;;;;;;;5.05;3.25;;;24.00;73.00;;;;;;7652212;22;81289;-49
2023/09/30 12:24:48;;;;;;;6.63;3.10;;;23.90;73.00;;;;;;7656968;22;80924;-51
2023/09/30 12:27:49;;;;;;;5.25;2.78;;;23.90;72.80;;;;;;7630021;22;80975;-53
2023/09/30 12:30:49;;;;;;;4.10;2.65;;;23.90;73.10;;;;;;7650665;22;80573;-57
2023/09/30 12:33:53;;;;;;;25.38;3.72;;;23.90;73.30;;;;;;7658492;22;80904;-51
2023/09/30 12:36:55;;;;;;;4.50;2.55;;;23.90;73.50;;;;;;7678012;22;80928;-52
2023/09/30 12:39:56;;;;;;;3.45;2.40;;;23.90;73.60;;;;;;7678385;22;80514;-51
2023/09/30 12:42:57;;;;;;;7.22;2.90;;;24.00;74.00;;;;;;7678663;22;80788;-51
2023/09/30 12:45:59;;;;;;;3.55;2.42;;;24.00;73.80;;;;;;7676131;22;80737;-51
2023/09/30 12:48:59;;;;;;;3.35;2.70;;;24.00;73.90;;;;;;7673936;22;80638;-57
2023/09/30 12:52:01;;;;;;;3.35;2.40;;;24.00;73.80;;;;;;7674008;22;80658;-57
2023/09/30 12:55:01;;;;;;;4.03;2.75;;;23.90;74.00;;;;;;7674914;22;80485;-57
2023/09/30 12:58:02;;;;;;;4.28;2.70;;;23.90;74.90;;;;;;7658158;22;80917;-57
2023/09/30 13:01:02;;;;;;;6.43;3.20;;;23.90;74.30;;;;;;7634687;22;81688;-58
2023/09/30 13:04:05;;;;;;;4.88;3.42;;;24.00;75.20;;;;;;7663685;22;80442;-56
2023/09/30 13:07:06;;;;;;;3.90;3.45;;;23.90;75.50;;;;;;7673144;22;80808;-49
2023/09/30 13:10:08;;;;;;;6.53;3.63;;;23.90;76.10;;;;;;7673120;22;80586;-53
2023/09/30 13:13:08;;;;;;;6.70;3.55;;;23.80;76.50;;;;;;7676142;22;81143;-55
2023/09/30 13:16:09;;;;;;;4.10;3.08;;;23.80;77.30;;;;;;7675682;22;80407;-51
2023/09/30 13:19:09;;;;;;;5.03;3.85;;;23.90;76.90;;;;;;7676319;22;80633;-53
2023/09/30 13:22:10;;;;;;;9.20;3.92;;;23.90;76.80;;;;;;7676574;22;80872;-51
2023/09/30 13:25:13;;;;;;;6.38;4.50;;;24.00;77.50;;;;;;7676547;22;80409;-49
2023/09/30 13:28:13;;;;;;;6.10;4.65;;;24.00;77.40;;;;;;7677333;22;80780;-51
2023/09/30 13:31:14;;;;;;;6.07;4.38;;;24.00;77.20;;;;;;7678087;22;80330;-50
2023/09/30 13:34:16;;;;;;;5.30;4.13;;;24.00;77.30;;;;;;7663019;22;81427;-47
2023/09/30 13:37:16;;;;;;;5.90;4.40;;;24.00;77.40;;;;;;7666468;22;80702;-50
2023/09/30 13:40:17;;;;;;;8.45;4.65;;;24.10;77.40;;;;;;7677400;22;82351;-50
2023/09/30 13:43:17;;;;;;;5.40;4.20;;;24.10;77.00;;;;;;7664479;22;81431;-66
2023/09/30 13:46:18;;;;;;;8.93;4.80;;;24.10;76.80;;;;;;7679256;22;80825;-71
2023/09/30 13:49:18;;;;;;;7.78;4.72;;;24.10;76.70;;;;;;7680264;22;81096;-73
2023/09/30 13:52:19;;;;;;;7.05;4.63;;;24.10;76.30;;;;;;7678475;22;81273;-69
2023/09/30 13:55:19;;;;;;;8.05;4.93;;;24.10;77.00;;;;;;7680012;22;80477;-64
2023/09/30 13:58:20;;;;;;;6.28;4.50;;;24.10;76.90;;;;;;7640659;22;80649;-61
2023/09/30 14:01:20;;;;;;;4.97;4.28;;;24.10;77.00;;;;;;7648831;22;80845;-62
2023/09/30 14:04:21;;;;;;;4.93;4.13;;;24.10;76.30;;;;;;7655586;22;80943;-64
2023/09/30 14:07:21;;;;;;;7.10;4.60;;;24.10;76.20;;;;;;7656751;22;80846;-61
2023/09/30 14:10:22;;;;;;;5.18;4.40;;;24.10;76.50;;;;;;7657436;22;80887;-61
2023/09/30 14:13:23;;;;;;;8.27;4.85;;;24.10;76.70;;;;;;7631438;22;80777;-60
2023/09/30 14:16:23;;;;;;;9.40;5.10;;;24.10;76.40;;;;;;7641501;22;80706;-62
2023/09/30 14:19:24;;;;;;;6.07;4.50;;;24.10;76.30;;;;;;7656612;22;81262;-54
2023/09/30 14:22:26;;;;;;;6.57;4.43;;;24.10;75.80;;;;;;7660034;22;80694;-53
2023/09/30 14:25:26;;;;;;;9.05;4.60;;;24.00;75.10;;;;;;7647954;22;80880;-51
2023/09/30 14:28:27;;;;;;;7.97;4.45;;;24.00;74.60;;;;;;7657134;22;80914;-46
2023/09/30 14:31:27;;;;;;;8.02;3.78;;;24.00;74.90;;;;;;7639184;22;82460;-52
2023/09/30 14:34:28;;;;;;;8.48;4.22;;;24.00;74.70;;;;;;7656687;22;80987;-52
2023/09/30 14:37:29;;;;;;;9.23;4.25;;;24.00;74.60;;;;;;7653153;22;80716;-51
2023/09/30 14:40:30;;;;;;;9.20;4.32;;;24.00;74.40;;;;;;7649758;22;80758;-50
2023/09/30 14:43:30;;;;;;;6.90;3.97;;;24.00;73.40;;;;;;7627374;22;82349;-51
2023/09/30 14:46:31;;;;;;;9.77;3.95;;;24.00;72.70;;;;;;7657938;22;81089;-47
2023/09/30 14:49:32;;;;;;;8.77;4.38;;;24.00;72.70;;;;;;7653799;22;80947;-46
2023/09/30 14:52:32;;;;;;;7.63;4.00;;;24.00;72.60;;;;;;7657896;22;81007;-47
2023/09/30 14:55:33;;;;;;;7.32;3.33;;;24.00;72.80;;;;;;7658346;22;80369;-50
2023/09/30 14:58:33;;;;;;;9.15;4.18;;;24.00;72.30;;;;;;7656190;22;80931;-59
2023/09/30 15:01:34;;;;;;;5.47;3.72;;;24.00;72.40;;;;;;7644899;22;81631;-59
2023/09/30 15:04:34;;;;;;;8.00;4.20;;;24.00;72.10;;;;;;7651287;22;80680;-57
2023/09/30 15:07:37;;;;;;;11.75;4.10;;;24.00;72.00;;;;;;7630342;22;80864;-56
2023/09/30 15:10:38;;;;;;;10.38;3.95;;;24.00;71.90;;;;;;7650708;22;81294;-58
2023/09/30 15:13:38;;;;;;;8.60;3.50;;;24.10;71.40;;;;;;7647922;22;81703;-50
2023/09/30 15:16:39;;;;;;;9.77;3.20;;;24.00;71.50;;;;;;7661972;22;80973;-46
2023/09/30 15:19:39;;;;;;;8.35;3.53;;;24.10;71.60;;;;;;7649372;22;81259;-46
2023/09/30 15:22:40;;;;;;;6.40;3.28;;;24.10;71.50;;;;;;7676648;22;80507;-46
2023/09/30 15:25:42;;;;;;;6.80;3.45;;;24.10;71.80;;;;;;7678141;22;80827;-48
2023/09/30 15:28:44;;;;;;;10.52;4.25;;;24.10;71.10;;;;;;7671365;22;81558;-47
2023/09/30 15:31:45;;;;;;;6.72;3.42;;;24.10;70.70;;;;;;7649337;22;82633;-61
2023/09/30 15:34:45;;;;;;;7.72;3.42;;;24.10;70.90;;;;;;7668883;22;80331;-57